createdAt,value
2023-02-18T00:03:26.610Z,5.58
2023-02-18T00:09:30.196Z,5.54
2023-02-18T00:15:27.269Z,5.49
2023-02-18T00:21:30.741Z,5.46
2023-02-18T00:27:34.139Z,5.44
2023-02-18T00:33:31.381Z,5.39
2023-02-18T00:39:34.776Z,5.34
2023-02-18T00:45:38.251Z,5.28
2023-02-18T00:51:41.692Z,5.22
2023-02-18T00:57:45.313Z,5.14
2023-02-18T01:03:49.141Z,5.07
2023-02-18T01:09:52.743Z,5.02
2023-02-18T01:15:56.200Z,4.97
2023-02-18T01:21:59.569Z,4.93
2023-02-18T01:27:55.536Z,4.87
2023-02-18T01:33:59.071Z,4.82
2023-02-18T01:40:02.829Z,4.78
2023-02-18T01:46:13.942Z,4.77
2023-02-18T01:52:26.251Z,4.75
2023-02-18T01:58:32.503Z,4.74
2023-02-18T02:04:35.915Z,4.74
2023-02-18T02:10:39.434Z,4.69
2023-02-18T02:16:31.413Z,4.67
2023-02-18T02:22:59.505Z,4.66
2023-02-18T02:29:10.830Z,4.66
2023-02-18T02:35:32.501Z,4.67
2023-02-18T02:41:42.226Z,4.65
2023-02-18T02:47:45.787Z,4.65
2023-02-18T02:53:52.372Z,4.61
2023-02-18T02:59:55.881Z,4.55
2023-02-18T03:06:01.122Z,4.50
2023-02-18T03:12:04.694Z,4.47
2023-02-18T03:18:14.226Z,4.45
2023-02-18T03:24:17.762Z,4.45
2023-02-18T03:30:21.269Z,4.42
2023-02-18T03:36:24.856Z,4.42
2023-02-18T03:42:28.274Z,4.43
2023-02-18T03:48:31.897Z,4.47
2023-02-18T03:54:27.998Z,4.49
2023-02-18T04:00:31.544Z,4.46
2023-02-18T04:06:34.914Z,4.43
2023-02-18T04:12:38.399Z,4.44
2023-02-18T04:18:41.821Z,4.44
2023-02-18T04:24:45.287Z,4.42
2023-02-18T04:30:48.786Z,4.44
2023-02-18T04:36:52.690Z,4.43
2023-02-18T04:42:56.065Z,4.38
2023-02-18T04:48:48.198Z,4.33
2023-02-18T04:54:51.806Z,4.32
2023-02-18T05:00:55.325Z,4.28
2023-02-18T05:06:58.900Z,4.28
2023-02-18T05:13:02.326Z,4.28
2023-02-18T05:19:05.816Z,4.25
2023-02-18T05:25:01.895Z,4.26
2023-02-18T05:31:04.413Z,4.31
2023-02-18T05:36:47.524Z,4.37
2023-02-18T05:42:33.700Z,4.41
2023-02-18T05:48:37.193Z,4.46
2023-02-18T05:54:40.909Z,4.52
2023-02-18T06:00:43.758Z,4.62
2023-02-18T06:06:47.549Z,4.66
2023-02-18T06:12:51.073Z,4.72
2023-02-18T06:18:54.452Z,4.76
2023-02-18T06:24:51.684Z,4.81
2023-02-18T06:30:55.106Z,4.88
2023-02-18T06:37:00.386Z,4.92
2023-02-18T06:43:04.970Z,4.96
2023-02-18T06:49:08.437Z,5.02
2023-02-18T06:55:11.950Z,5.07
2023-02-18T07:01:15.486Z,5.10
2023-02-18T07:07:19.077Z,5.12
2023-02-18T07:13:21.344Z,5.16
2023-02-18T07:19:23.880Z,5.20
2023-02-18T07:25:07.035Z,5.25
2023-02-18T07:30:57.659Z,5.30
2023-02-18T07:37:01.301Z,5.36
2023-02-18T07:43:03.753Z,5.43
2023-02-18T07:48:47.122Z,5.53
2023-02-18T07:54:50.934Z,5.63
2023-02-18T08:00:54.533Z,5.70
2023-02-18T08:07:00.829Z,5.74
2023-02-18T08:13:04.620Z,5.80
2023-02-18T08:18:57.023Z,5.81
2023-02-18T08:24:50.215Z,5.77
2023-02-18T08:30:24.565Z,5.71
2023-02-18T08:36:13.407Z,5.63
2023-02-18T08:42:06.295Z,5.62
2023-02-18T08:48:18.659Z,5.58
2023-02-18T08:53:42.250Z,5.55
2023-02-18T08:59:45.714Z,5.51
2023-02-18T09:05:11.579Z,5.49
2023-02-18T09:10:50.106Z,5.49
2023-02-18T09:16:38.874Z,5.43
2023-02-18T09:22:33.844Z,5.39
2023-02-18T09:28:19.546Z,5.43
2023-02-18T09:34:09.400Z,5.46
2023-02-18T09:40:15.377Z,5.49
2023-02-18T09:45:42.815Z,5.68
2023-02-18T09:51:22.981Z,5.98
2023-02-18T09:57:18.110Z,6.09
2023-02-18T10:03:20.988Z,6.30
2023-02-18T10:09:14.434Z,6.18
2023-02-18T10:14:31.792Z,6.10
2023-02-18T10:19:38.610Z,6.21
2023-02-18T10:25:16.871Z,6.24
2023-02-18T10:30:46.699Z,6.22
2023-02-18T10:36:18.698Z,6.09
2023-02-18T10:42:03.141Z,6.00
2023-02-18T10:48:24.868Z,5.88
2023-02-18T10:54:10.203Z,5.83
2023-02-18T11:00:00.685Z,5.80
2023-02-18T11:05:49.710Z,5.75
2023-02-18T11:11:07.426Z,5.73
2023-02-18T11:16:23.572Z,5.74
2023-02-18T11:22:07.026Z,5.75
2023-02-18T11:28:22.681Z,5.79
2023-02-18T11:34:35.049Z,5.79
2023-02-18T11:40:31.568Z,5.75
2023-02-18T11:46:29.460Z,5.75
2023-02-18T11:52:24.291Z,5.74
2023-02-18T11:58:27.776Z,5.74
2023-02-18T12:04:49.418Z,5.79
2023-02-18T12:10:55.920Z,5.90
2023-02-18T12:17:08.451Z,5.99
2023-02-18T12:22:54.749Z,6.13
2023-02-18T12:28:54.271Z,6.21
2023-02-18T12:35:13.101Z,6.30
2023-02-18T12:41:34.790Z,6.48
2023-02-18T12:47:56.846Z,6.71
2023-02-18T12:53:58.490Z,6.98
2023-02-18T13:00:00.577Z,7.23
2023-02-18T13:06:18.914Z,7.46
2023-02-18T13:12:28.351Z,7.68
2023-02-18T13:18:31.789Z,7.93
2023-02-18T13:24:44.259Z,8.10
2023-02-18T13:30:47.646Z,8.25
2023-02-18T13:37:06.362Z,8.34
2023-02-18T13:43:19.555Z,8.42
2023-02-18T13:49:23.412Z,8.54
2023-02-18T13:55:27.181Z,8.69
2023-02-18T14:01:39.698Z,8.73
2023-02-18T14:07:22.971Z,8.77
2023-02-18T14:14:00.242Z,8.77
2023-02-18T14:20:02.584Z,8.78
2023-02-18T14:26:11.774Z,8.78
2023-02-18T14:32:36.895Z,8.78
2023-02-18T14:38:49.160Z,8.82
2023-02-18T14:45:11.122Z,8.85
2023-02-18T14:51:14.541Z,8.89
2023-02-18T14:57:18.014Z,8.92
2023-02-18T15:03:21.406Z,8.89
2023-02-18T15:09:25.020Z,8.85
2023-02-18T15:15:28.568Z,8.81
2023-02-18T15:21:34.903Z,8.80
2023-02-18T15:27:56.411Z,8.76
2023-02-18T15:34:00.023Z,8.50
2023-02-18T15:40:03.424Z,8.26
2023-02-18T15:46:13.853Z,8.17
2023-02-18T15:52:20.127Z,8.13
2023-02-18T15:58:23.683Z,8.09
2023-02-18T16:04:25.374Z,8.08
2023-02-18T16:10:31.984Z,8.03
2023-02-18T16:16:39.068Z,7.95
2023-02-18T16:22:45.371Z,7.89
2023-02-18T16:28:54.771Z,7.86
2023-02-18T16:34:58.438Z,7.81
2023-02-18T16:41:20.109Z,7.67
2023-02-18T16:47:17.027Z,7.37
2023-02-18T16:53:19.484Z,7.15
2023-02-18T16:59:15.538Z,7.04
2023-02-18T17:05:26.343Z,6.95
2023-02-18T17:11:32.308Z,6.81
2023-02-18T17:17:35.744Z,6.69
2023-02-18T17:23:39.182Z,6.62
2023-02-18T17:29:25.249Z,6.52
2023-02-18T17:34:54.179Z,6.48
2023-02-18T17:40:57.733Z,6.40
2023-02-18T17:46:53.811Z,6.30
2023-02-18T17:52:39.676Z,6.21
2023-02-18T17:57:49.903Z,6.15
2023-02-18T18:03:10.006Z,6.10
2023-02-18T18:08:21.694Z,6.10
2023-02-18T18:13:32.226Z,6.11
2023-02-18T18:18:37.966Z,6.12
2023-02-18T18:23:46.692Z,6.07
2023-02-18T18:28:51.783Z,6.05
2023-02-18T18:34:23.501Z,6.00
2023-02-18T18:40:16.865Z,5.93
2023-02-18T18:46:10.793Z,5.84
2023-02-18T18:51:50.781Z,5.76
2023-02-18T18:56:56.277Z,5.71
2023-02-18T19:02:53.436Z,5.70
2023-02-18T19:08:20.381Z,5.64
2023-02-18T19:13:36.319Z,5.60
2023-02-18T19:19:24.900Z,5.52
2023-02-18T19:24:41.834Z,5.40
2023-02-18T19:30:23.796Z,5.31
2023-02-18T19:36:27.220Z,5.28
2023-02-18T19:42:06.025Z,5.27
2023-02-18T19:47:50.394Z,5.24
2023-02-18T19:53:36.796Z,5.17
2023-02-18T19:59:40.218Z,5.16
2023-02-18T20:05:19.605Z,5.10
2023-02-18T20:11:03.008Z,5.07
2023-02-18T20:16:33.992Z,5.07
2023-02-18T20:22:09.791Z,5.07
2023-02-18T20:28:00.843Z,5.03
2023-02-18T20:34:04.895Z,4.97
2023-02-18T20:39:57.026Z,4.94
2023-02-18T20:44:59.946Z,4.96
2023-02-18T20:50:53.543Z,4.96
2023-02-18T20:56:40.078Z,4.94
2023-02-18T21:02:33.537Z,4.93
2023-02-18T21:08:26.947Z,4.91
2023-02-18T21:14:04.783Z,4.88
2023-02-18T21:20:08.195Z,4.87
2023-02-18T21:26:04.307Z,4.85
2023-02-18T21:31:39.919Z,4.84
2023-02-18T21:36:49.171Z,4.84
2023-02-18T21:42:52.545Z,4.84
2023-02-18T21:48:54.213Z,4.82
2023-02-18T21:54:47.540Z,4.78
2023-02-18T22:00:41.519Z,4.79
2023-02-18T22:06:36.491Z,4.76
2023-02-18T22:12:12.875Z,4.68
2023-02-18T22:18:16.310Z,4.64
2023-02-18T22:23:34.327Z,4.57
2023-02-18T22:28:48.912Z,4.55
2023-02-18T22:34:52.299Z,4.55
2023-02-18T22:40:55.743Z,4.54
2023-02-18T22:46:59.127Z,4.57
2023-02-18T22:53:02.586Z,4.56
2023-02-18T22:59:06.037Z,4.56
2023-02-18T23:05:09.411Z,4.52
2023-02-18T23:11:12.966Z,4.49
2023-02-18T23:17:34.510Z,4.52
2023-02-18T23:23:38.200Z,4.46
2023-02-18T23:29:41.678Z,4.45
2023-02-18T23:35:45.223Z,4.41
2023-02-18T23:41:41.530Z,4.41
2023-02-18T23:47:45.054Z,4.38
2023-02-18T23:53:48.566Z,4.34
2023-02-18T23:59:52.029Z,4.33
